Flight Track Log - Related Links

Times and Time Zones

All times are in EST time to prevent confusion due to time zone crossing. See the CCA1119 flight status page for this flight to view local times or setup timezone preferences in your user account.

Time Position Orientation Groundspeed Altitude Reporting Facility
EST Latitude Longitude Course Direction KTS MPH feet Rate Location/Type
Mon 06:20:56 PM 40.1520 116.5860 355° North 175 201 3,200  Level FlightAware ADS-B
Mon 06:21:44 PM 40.2110 116.5700 348° North 248 285 5,900 2,684 Climbing FlightAware ADS-B
Mon 06:22:12 PM 40.2430 116.5570 343° North 244 281 6,600 778 Climbing FlightAware ADS-B
Mon 06:22:38 PM 40.2660 116.5470 342° North 244 281 6,600 892 Level FlightAware ADS-B
Mon 06:25:00 PM 40.2583 116.4059 266° West  Level Estimated
Mon 06:25:27 PM 40.3380 116.3800 266° West 289 333 9,500  Level FlightAware ADS-B
Mon 06:25:45 PM 40.3240 116.3540 235° Southwest 291 335 9,600 1,588 Climbing FlightAware ADS-B
Mon 06:26:35 PM 40.2820 116.2790 234° Southwest 327 376 11,300 2,333 Climbing FlightAware ADS-B
Mon 06:27:33 PM 40.2280 116.1850 233° Southwest 337 388 13,800 1,546 Climbing FlightAware ADS-B
Mon 06:28:12 PM 40.1940 116.1240 234° Southwest 349 402 13,800  Level FlightAware ADS-B
Mon 06:28:55 PM 40.1510 116.0480 234° Southwest 338 389 13,800  Level FlightAware ADS-B
Mon 06:29:02 PM 40.1440 116.0360 233° Southwest 338 389 13,800  Level FlightAware ADS-B
Mon 06:30:09 PM 40.0870 115.9350 234° Southwest 338 389 13,800  Level FlightAware ADS-B
Mon 06:30:54 PM 40.0440 115.8580 234° Southwest 335 386 13,800  Level FlightAware ADS-B
Mon 06:31:19 PM 40.0240 115.8140 239° Southwest 338 389 13,800  Level FlightAware ADS-B
Mon 06:31:34 PM 40.0210 115.7830 263° West 339 390 13,800  Level FlightAware ADS-B
Mon 06:32:15 PM 40.0380 115.7010 285° West 334 384 13,800  Level FlightAware ADS-B
Mon 06:33:09 PM 40.0600 115.6020 286° West 331 381 13,800  Level FlightAware ADS-B
Mon 06:33:54 PM 40.0820 115.5110 288° West 336 387 13,800  Level FlightAware ADS-B
Mon 06:34:29 PM 40.0970 115.4460 287° West 336 387 13,800  Level FlightAware ADS-B
Mon 06:35:24 PM 40.1210 115.3400 287° West 333 383 13,800  Level FlightAware ADS-B
Mon 06:36:00 PM 40.1370 115.2720 287° West 331 381 13,800  Level FlightAware ADS-B
Mon 06:36:55 PM 40.1570 115.1850 287° West 330 380 13,800  Level FlightAware ADS-B
Mon 06:37:43 PM 40.1750 115.1070 287° West 330 380 13,800  Level FlightAware ADS-B
Mon 06:40:00 PM 40.1663 114.9712 265° West  Level Estimated
Mon 06:41:00 PM 40.1624 114.9118 265° West  Level Estimated
Mon 06:42:00 PM 40.1586 114.8523 265° West  Level Estimated
Mon 06:43:00 PM 40.1546 114.7929 265° West  Level Estimated
Mon 06:44:00 PM 40.1507 114.7335 265° West  Level Estimated
Mon 06:45:00 PM 40.1467 114.6740 265° West  Level Estimated
Mon 06:46:00 PM 40.1427 114.6146 265° West  Level Estimated
Mon 06:47:00 PM 40.1386 114.5552 265° West  Level Estimated
Mon 06:48:00 PM 40.1346 114.4958 265° West  Level Estimated
Mon 06:49:00 PM 40.1305 114.4364 265° West  Level Estimated
Mon 06:50:00 PM 40.1263 114.3770 265° West  Level Estimated
Mon 06:51:00 PM 40.1222 114.3176 265° West  Level Estimated
Mon 06:52:00 PM 40.1180 114.2582 265° West  Level Estimated
Mon 06:53:00 PM 40.1137 114.1989 265° West  Level Estimated
Mon 06:54:00 PM 40.1095 114.1395 265° West  Level Estimated
Mon 06:55:00 PM 40.1052 114.0802 265° West  Level Estimated
Mon 06:56:00 PM 40.1008 114.0208 265° West  Level Estimated
Mon 06:57:00 PM 40.0965 113.9615 265° West  Level Estimated
Mon 06:58:00 PM 40.0921 113.9021 265° West  Level Estimated
Mon 06:59:00 PM 40.0877 113.8428 264° West  Level Estimated
Mon 07:00:00 PM 40.0833 113.7835 264° West  Level Estimated
Mon 07:01:00 PM 40.0788 113.7242 264° West  Level Estimated
Mon 07:02:00 PM 40.0743 113.6649 264° West  Level Estimated
Mon 07:03:00 PM 40.0698 113.6056 264° West  Level Estimated
Mon 07:04:00 PM 40.0652 113.5463 264° West  Level Estimated
Mon 07:05:00 PM 40.0606 113.4870 264° West  Level Estimated
Mon 07:06:00 PM 40.0603 113.4822 264° West  Level Estimated
Mon 07:07:00 PM 40.0603 113.4822 143° Southeast  Level Estimated
Mon 07:08:00 PM 40.0603 113.4822 143° Southeast  Level Estimated
Mon 07:09:00 PM 40.0603 113.4822 143° Southeast  Level Estimated
Mon 07:10:00 PM 40.0603 113.4822 143° Southeast  Level Estimated
Mon 07:11:00 PM 40.0603 113.4822 143° Southeast  Level Estimated
Mon 07:12:00 PM 40.0603 113.4822 143° Southeast  Level Estimated
Mon 07:13:00 PM 40.0603 113.4822 143° Southeast  Level Estimated
Mon 07:14:00 PM 40.0603 113.4822 143° Southeast  Level Estimated
Mon 07:15:00 PM 40.0603 113.4822 143° Southeast  Level Estimated
Mon 07:16:00 PM 40.0603 113.4822 143° Southeast  Level Estimated
Mon 07:17:00 PM 40.0603 113.4822 143° Southeast  Level Estimated
Mon 07:18:00 PM 40.0603 113.4822 143° Southeast  Level Estimated
Mon 07:19:00 PM 40.0603 113.4822 143° Southeast  Level Estimated
Mon 07:20:00 PM 40.0603 113.4822 143° Southeast  Level Estimated
Mon 07:21:00 PM 40.0603 113.4822 143° Southeast  Level Estimated
Mon 07:22:00 PM 40.0603 113.4822 143° Southeast  Level Estimated
Mon 07:23:00 PM 40.0603 113.4822 143° Southeast  Level Estimated
Mon 07:24:00 PM 40.0603 113.4822 143° Southeast  Level Estimated
Mon 07:25:00 PM 40.0603 113.4822 143° Southeast  Level Estimated
Mon 07:26:00 PM 40.0603 113.4822 143° Southeast  Level Estimated

Login

Don't have an account? Register now (free) for customized features, flight alerts, and more!